createdAt,value
2022-08-07T00:02:35.285Z,98342.50
2022-08-07T00:04:04.418Z,98342.91
2022-08-07T00:06:33.886Z,98336.06
2022-08-07T00:09:16.712Z,98342.84
2022-08-07T00:11:48.125Z,98334.06
2022-08-07T00:14:25.415Z,98338.87
2022-08-07T00:16:57.768Z,98334.09
2022-08-07T00:19:25.954Z,98332.53
2022-08-07T00:22:02.294Z,98322.09
2022-08-07T00:24:31.753Z,98335.50
2022-08-07T00:27:07.136Z,98329.13
2022-08-07T00:29:37.215Z,98335.03
2022-08-07T00:32:06.908Z,98337.53
2022-08-07T00:34:35.450Z,98335.25
2022-08-07T00:37:05.123Z,98339.13
2022-08-07T00:39:34.703Z,98350.50
2022-08-07T00:42:05.323Z,98346.63
2022-08-07T00:44:33.764Z,98346.03
2022-08-07T00:47:06.525Z,98348.66
2022-08-07T00:50:19.535Z,98344.69
2022-08-07T00:52:30.215Z,98340.50
2022-08-07T00:55:04.759Z,98335.88
2022-08-07T00:57:37.712Z,98350.72
2022-08-07T01:00:11.943Z,98341.34
2022-08-07T01:02:39.714Z,98345.66
2022-08-07T01:05:18.746Z,98343.97
2022-08-07T01:07:46.661Z,98329.97
2022-08-07T01:10:18.399Z,98338.72
2022-08-07T01:12:53.989Z,98333.94
2022-08-07T01:15:22.824Z,98329.94
2022-08-07T01:18:03.666Z,98324.16
2022-08-07T01:20:43.912Z,98327.91
2022-08-07T01:23:34.692Z,98322.84
2022-08-07T01:26:06.094Z,98335.50
2022-08-07T01:28:33.324Z,98344.97
2022-08-07T01:31:01.678Z,98337.88
2022-08-07T01:33:55.191Z,98341.56
2022-08-07T01:36:17.210Z,98335.22
2022-08-07T01:38:44.291Z,98339.87
2022-08-07T01:41:11.932Z,98350.13
2022-08-07T01:43:53.727Z,98348.78
2022-08-07T01:46:21.338Z,98355.97
2022-08-07T01:48:49.188Z,98347.53
2022-08-07T01:52:01.340Z,98348.59
2022-08-07T01:54:12.391Z,98348.75
2022-08-07T01:56:49.344Z,98340.75
2022-08-07T01:59:30.876Z,98342.50
2022-08-07T02:02:06.759Z,98348.28
2022-08-07T02:04:55.620Z,98342.94
2022-08-07T02:07:35.937Z,98331.41
2022-08-07T02:10:14.695Z,98339.13
2022-08-07T02:12:43.084Z,98337.66
2022-08-07T02:15:14.699Z,98332.66
2022-08-07T02:17:49.847Z,98336.44
2022-08-07T02:20:23.905Z,98342.44
2022-08-07T02:22:59.550Z,98343.22
2022-08-07T02:26:10.371Z,98335.06
2022-08-07T02:28:24.563Z,98331.63
2022-08-07T02:30:53.328Z,98327.97
2022-08-07T02:33:20.617Z,98335.84
2022-08-07T02:36:28.755Z,98338.13
2022-08-07T02:38:39.163Z,98334.28
2022-08-07T02:41:21.819Z,98339.41
2022-08-07T02:43:49.515Z,98339.09
2022-08-07T02:46:18.805Z,98332.63
2022-08-07T02:48:54.747Z,98330.28
2022-08-07T02:51:41.899Z,98325.28
2022-08-07T02:54:09.843Z,98325.69
2022-08-07T02:56:40.398Z,98321.28
2022-08-07T02:59:11.788Z,98326.19
2022-08-07T03:01:40.372Z,98329.03
2022-08-07T03:04:12.909Z,98325.56
2022-08-07T03:06:45.967Z,98321.94
2022-08-07T03:09:41.852Z,98322.22
2022-08-07T03:12:07.981Z,98325.59
2022-08-07T03:14:39.933Z,98325.81
2022-08-07T03:17:08.651Z,98317.09
2022-08-07T03:19:37.101Z,98321.06
2022-08-07T03:22:05.833Z,98324.53
2022-08-07T03:24:34.263Z,98320.56
2022-08-07T03:27:05.446Z,98327.44
2022-08-07T03:29:46.030Z,98331.03
2022-08-07T03:32:19.501Z,98334.75
2022-08-07T03:35:01.077Z,98339.28
2022-08-07T03:37:46.343Z,98339.47
2022-08-07T03:40:20.774Z,98339.97
2022-08-07T03:42:50.842Z,98320.66
2022-08-07T03:45:30.285Z,98328.97
2022-08-07T03:47:59.175Z,98334.28
2022-08-07T03:50:28.604Z,98342.16
2022-08-07T03:52:58.315Z,98337.44
2022-08-07T03:55:57.763Z,98343.50
2022-08-07T03:59:05.150Z,98346.59
2022-08-07T04:01:00.469Z,98354.81
2022-08-07T04:03:27.574Z,98351.78
2022-08-07T04:06:10.185Z,98354.25
2022-08-07T04:08:57.492Z,98361.16
2022-08-07T04:12:23.581Z,98351.66
2022-08-07T04:14:37.794Z,98354.87
2022-08-07T04:16:59.748Z,98355.81
2022-08-07T04:19:51.080Z,98364.88
2022-08-07T04:22:18.008Z,98360.59
2022-08-07T04:24:46.265Z,98367.28
2022-08-07T04:27:15.223Z,98368.91
2022-08-07T04:30:02.381Z,98370.84
2022-08-07T04:32:34.585Z,98371.53
2022-08-07T04:35:05.599Z,98367.03
2022-08-07T04:38:01.060Z,98373.47
2022-08-07T04:40:20.451Z,98373.16
2022-08-07T04:42:51.785Z,98384.09
2022-08-07T04:45:52.085Z,98382.09
2022-08-07T04:48:40.293Z,98387.75
2022-08-07T04:51:18.309Z,98388.38
2022-08-07T04:54:06.018Z,98391.47
2022-08-07T04:58:12.865Z,98393.22
2022-08-07T05:00:10.823Z,98398.59
2022-08-07T05:03:38.681Z,98406.00
2022-08-07T05:06:19.649Z,98405.69
2022-08-07T05:09:14.435Z,98413.53
2022-08-07T05:11:58.835Z,98412.97
2022-08-07T05:14:52.168Z,98413.81
2022-08-07T05:17:52.932Z,98414.00
2022-08-07T05:20:16.978Z,98410.94
2022-08-07T05:22:46.449Z,98411.59
2022-08-07T05:25:25.884Z,98406.66
2022-08-07T05:28:20.109Z,98407.44
2022-08-07T05:30:48.538Z,98418.53
2022-08-07T05:33:16.043Z,98414.50
2022-08-07T05:35:46.003Z,98420.75
2022-08-07T05:39:00.981Z,98418.53
2022-08-07T05:41:05.314Z,98421.78
2022-08-07T05:43:49.569Z,98416.19
2022-08-07T05:46:27.441Z,98418.69
2022-08-07T05:48:58.162Z,98419.41
2022-08-07T05:51:31.542Z,98426.44
2022-08-07T05:54:12.677Z,98426.06
2022-08-07T05:56:51.334Z,98420.31
2022-08-07T05:59:19.886Z,98428.44
2022-08-07T06:01:49.004Z,98426.56
2022-08-07T06:04:17.561Z,98428.41
2022-08-07T06:06:46.399Z,98422.97
2022-08-07T06:09:15.800Z,98431.87
2022-08-07T06:11:43.741Z,98429.84
2022-08-07T06:14:21.350Z,98426.00
2022-08-07T06:16:57.143Z,98428.81
2022-08-07T06:19:57.590Z,98442.00
2022-08-07T06:22:22.870Z,98432.31
2022-08-07T06:24:56.797Z,98427.97
2022-08-07T06:28:00.516Z,98434.19
2022-08-07T06:30:24.308Z,98432.16
2022-08-07T06:33:00.069Z,98442.94
2022-08-07T06:35:39.059Z,98435.59
2022-08-07T06:38:20.657Z,98440.81
2022-08-07T06:40:51.982Z,98440.22
2022-08-07T06:43:22.462Z,98444.00
2022-08-07T06:45:50.889Z,98437.66
2022-08-07T06:48:25.079Z,98439.16
2022-08-07T06:50:54.106Z,98436.00
2022-08-07T06:55:29.248Z,98432.88
2022-08-07T06:56:15.434Z,98437.53
2022-08-07T07:00:12.088Z,98429.53
2022-08-07T07:01:41.859Z,98430.87
2022-08-07T07:04:28.221Z,98431.50
2022-08-07T07:07:01.292Z,98433.91
2022-08-07T07:09:31.279Z,98430.34
2022-08-07T07:12:09.953Z,98436.06
2022-08-07T07:15:04.150Z,98422.81
2022-08-07T07:17:54.760Z,98432.09
2022-08-07T07:20:30.282Z,98433.31
2022-08-07T07:24:06.627Z,98424.56
2022-08-07T07:26:34.133Z,98430.09
2022-08-07T07:29:55.842Z,98437.47
2022-08-07T07:31:48.439Z,98429.72
2022-08-07T07:34:20.379Z,98436.28
2022-08-07T07:36:54.035Z,98437.78
2022-08-07T07:39:23.102Z,98430.84
2022-08-07T07:42:13.080Z,98433.97
2022-08-07T07:44:42.666Z,98436.41
2022-08-07T07:47:15.923Z,98426.25
2022-08-07T07:50:36.641Z,98434.03
2022-08-07T07:52:38.317Z,98428.97
2022-08-07T07:55:07.831Z,98435.41
2022-08-07T07:57:50.516Z,98433.66
2022-08-07T08:00:29.675Z,98442.16
2022-08-07T08:03:08.256Z,98446.25
2022-08-07T08:05:50.875Z,98431.25
2022-08-07T08:08:35.238Z,98439.47
2022-08-07T08:11:05.619Z,98442.56
2022-08-07T08:13:54.365Z,98433.59
2022-08-07T08:16:30.059Z,98434.59
2022-08-07T08:19:00.258Z,98442.31
2022-08-07T08:22:03.130Z,98438.69
2022-08-07T08:24:57.308Z,98438.69
2022-08-07T08:27:40.885Z,98445.00
2022-08-07T08:30:24.987Z,98437.00
2022-08-07T08:32:54.745Z,98440.38
2022-08-07T08:35:28.553Z,98435.41
2022-08-07T08:38:00.789Z,98431.75
2022-08-07T08:40:38.170Z,98440.97
2022-08-07T08:43:09.646Z,98435.34
2022-08-07T08:46:00.816Z,98434.69
2022-08-07T08:48:38.377Z,98439.03
2022-08-07T08:52:14.033Z,98431.47
2022-08-07T08:54:43.602Z,98442.19
2022-08-07T08:57:45.132Z,98434.94
2022-08-07T09:00:12.881Z,98432.81
2022-08-07T09:02:57.706Z,98432.38
2022-08-07T09:05:46.104Z,98435.16
2022-08-07T09:08:28.505Z,98445.16
2022-08-07T09:11:24.831Z,98427.56
2022-08-07T09:14:14.951Z,98419.72
2022-08-07T09:16:47.838Z,98432.06
2022-08-07T09:19:52.601Z,98429.81
2022-08-07T09:24:32.369Z,98425.47
2022-08-07T09:25:59.471Z,98425.41
2022-08-07T09:30:01.486Z,98418.91
2022-08-07T09:31:38.677Z,98419.50
2022-08-07T09:34:16.775Z,98413.50
2022-08-07T09:37:12.070Z,98414.16
2022-08-07T09:39:54.190Z,98414.13
2022-08-07T09:42:35.444Z,98405.84
2022-08-07T09:47:42.382Z,98404.22
2022-08-07T09:48:11.349Z,98405.06
2022-08-07T09:51:25.951Z,98396.97
2022-08-07T09:54:02.033Z,98384.06
2022-08-07T09:56:44.762Z,98389.72
2022-08-07T10:00:00.521Z,98382.12
2022-08-07T10:04:06.090Z,98392.13
2022-08-07T10:06:35.609Z,98381.91
2022-08-07T10:09:08.638Z,98387.00
2022-08-07T10:12:15.364Z,98381.12
2022-08-07T10:15:37.616Z,98374.59
2022-08-07T10:18:26.398Z,98368.47
2022-08-07T10:22:12.665Z,98378.50
2022-08-07T10:24:40.381Z,98374.66
2022-08-07T10:27:20.917Z,98377.63
2022-08-07T10:30:06.571Z,98378.72
2022-08-07T10:32:53.006Z,98373.03
2022-08-07T10:35:55.382Z,98374.41
2022-08-07T10:38:36.235Z,98374.22
2022-08-07T10:41:51.307Z,98365.72
2022-08-07T10:44:38.520Z,98376.22
2022-08-07T10:47:26.093Z,98360.59
2022-08-07T10:50:19.932Z,98370.87
2022-08-07T10:53:07.932Z,98361.13
2022-08-07T10:55:50.714Z,98360.88
2022-08-07T10:58:36.710Z,98354.91
2022-08-07T11:01:22.287Z,98356.41
2022-08-07T11:04:23.192Z,98357.47
2022-08-07T11:08:00.745Z,98359.41
2022-08-07T11:10:32.626Z,98351.56
2022-08-07T11:13:04.451Z,98347.37
2022-08-07T11:15:36.522Z,98349.31
2022-08-07T11:18:17.744Z,98345.97
2022-08-07T11:21:05.266Z,98346.28
2022-08-07T11:23:45.446Z,98347.06
2022-08-07T11:26:18.171Z,98343.09
2022-08-07T11:28:55.431Z,98345.09
2022-08-07T11:31:35.275Z,98336.72
2022-08-07T11:34:25.589Z,98327.62
2022-08-07T11:37:00.636Z,98333.75
2022-08-07T11:39:59.220Z,98341.59
2022-08-07T11:42:34.392Z,98335.56
2022-08-07T11:45:23.749Z,98339.31
2022-08-07T11:48:35.517Z,98334.75
2022-08-07T11:51:41.270Z,98328.72
2022-08-07T11:54:54.843Z,98320.47
2022-08-07T11:57:59.385Z,98315.19
2022-08-07T12:00:54.990Z,98311.28
2022-08-07T12:03:52.129Z,98313.94
2022-08-07T12:06:39.086Z,98311.88
2022-08-07T12:09:25.439Z,98299.81
2022-08-07T12:12:16.333Z,98307.53
2022-08-07T12:15:35.904Z,98312.31
2022-08-07T12:18:08.057Z,98306.03
2022-08-07T12:21:14.987Z,98303.22
2022-08-07T12:24:06.249Z,98309.50
2022-08-07T12:27:03.501Z,98298.34
2022-08-07T12:29:47.819Z,98303.78
2022-08-07T12:32:30.784Z,98299.06
2022-08-07T12:34:58.946Z,98300.38
2022-08-07T12:38:09.066Z,98304.22
2022-08-07T12:40:46.700Z,98296.50
2022-08-07T12:43:10.319Z,98300.06
2022-08-07T12:45:59.006Z,98292.56
2022-08-07T12:48:52.830Z,98289.31
2022-08-07T12:51:33.132Z,98286.87
2022-08-07T12:54:38.558Z,98292.63
2022-08-07T12:57:09.673Z,98284.19
2022-08-07T12:59:55.164Z,98289.34
2022-08-07T13:02:49.441Z,98283.34
2022-08-07T13:06:02.896Z,98288.06
2022-08-07T13:08:34.033Z,98283.38
2022-08-07T13:11:25.246Z,98287.63
2022-08-07T13:14:04.137Z,98279.28
2022-08-07T13:16:56.467Z,98276.28
2022-08-07T13:19:50.581Z,98271.06
2022-08-07T13:22:33.256Z,98263.87
2022-08-07T13:25:09.783Z,98266.75
2022-08-07T13:28:13.464Z,98258.94
2022-08-07T13:30:49.138Z,98266.66
2022-08-07T13:34:34.442Z,98261.63
2022-08-07T13:36:26.957Z,98255.63
2022-08-07T13:38:57.238Z,98250.66
2022-08-07T13:41:42.887Z,98253.88
2022-08-07T13:44:19.024Z,98239.28
2022-08-07T13:46:57.027Z,98240.00
2022-08-07T13:50:34.993Z,98242.03
2022-08-07T13:52:26.476Z,98237.09
2022-08-07T13:55:00.646Z,98231.94
2022-08-07T13:57:38.123Z,98228.97
2022-08-07T14:00:26.047Z,98226.41
2022-08-07T14:02:56.713Z,98219.25
2022-08-07T14:05:37.279Z,98211.25
2022-08-07T14:08:07.997Z,98225.87
2022-08-07T14:10:42.251Z,98221.41
2022-08-07T14:13:17.945Z,98220.25
2022-08-07T14:15:52.533Z,98223.50
2022-08-07T14:18:34.901Z,98216.28
2022-08-07T14:21:21.018Z,98211.41
2022-08-07T14:24:28.509Z,98214.09
2022-08-07T14:28:09.407Z,98219.59
2022-08-07T14:30:05.164Z,98208.81
2022-08-07T14:32:58.756Z,98206.94
2022-08-07T14:35:45.158Z,98210.13
2022-08-07T14:38:26.248Z,98206.28
2022-08-07T14:41:14.939Z,98205.78
2022-08-07T14:43:58.429Z,98202.31
2022-08-07T14:46:33.520Z,98204.03
2022-08-07T14:49:17.368Z,98194.87
2022-08-07T14:52:04.280Z,98201.87
2022-08-07T14:54:42.947Z,98208.22
2022-08-07T14:57:15.034Z,98212.56
2022-08-07T15:00:05.782Z,98205.06
2022-08-07T15:05:23.606Z,98199.50
2022-08-07T15:07:52.164Z,98202.03
2022-08-07T15:12:54.810Z,98199.22
2022-08-07T15:15:38.412Z,98189.63
2022-08-07T15:18:14.576Z,98194.34
2022-08-07T15:25:12.690Z,98186.97
2022-08-07T15:26:22.654Z,98190.34
2022-08-07T15:30:03.543Z,98192.59
2022-08-07T15:34:36.952Z,98194.06
2022-08-07T15:37:06.755Z,98187.75
2022-08-07T15:48:36.101Z,98184.84
2022-08-07T15:54:12.489Z,98177.09
2022-08-07T15:56:41.815Z,98183.47
2022-08-07T15:59:17.306Z,98177.38
2022-08-07T16:02:01.987Z,98181.91
2022-08-07T16:04:32.154Z,98180.44
2022-08-07T16:07:04.698Z,98174.31
2022-08-07T16:10:09.529Z,98179.75
2022-08-07T16:13:04.760Z,98177.63
2022-08-07T16:15:57.523Z,98174.91
2022-08-07T16:18:49.796Z,98174.06
2022-08-07T16:22:02.104Z,98164.22
2022-08-07T16:24:52.512Z,98166.53
2022-08-07T16:27:39.788Z,98171.00
2022-08-07T16:30:29.499Z,98164.50
2022-08-07T16:34:03.256Z,98168.00
2022-08-07T16:36:31.226Z,98165.59
2022-08-07T16:39:49.428Z,98163.94
2022-08-07T16:42:39.817Z,98167.75
2022-08-07T16:46:40.725Z,98164.53
2022-08-07T16:48:34.473Z,98166.03
2022-08-07T16:51:54.421Z,98159.47
2022-08-07T16:54:35.098Z,98165.66
2022-08-07T16:58:02.436Z,98163.97
2022-08-07T17:00:29.683Z,98166.13
2022-08-07T17:03:09.971Z,98166.00
2022-08-07T17:06:28.926Z,98173.81
2022-08-07T17:09:13.861Z,98179.13
2022-08-07T17:12:01.799Z,98172.97
2022-08-07T17:15:19.673Z,98178.22
2022-08-07T17:17:47.368Z,98178.44
2022-08-07T17:20:35.721Z,98178.97
2022-08-07T17:23:22.936Z,98178.03
2022-08-07T17:26:23.618Z,98179.97
2022-08-07T17:30:13.018Z,98180.50
2022-08-07T17:32:30.686Z,98188.03
2022-08-07T17:35:50.983Z,98181.59
2022-08-07T17:38:18.831Z,98194.53
2022-08-07T17:42:02.415Z,98197.75
2022-08-07T17:44:16.501Z,98191.88
2022-08-07T17:47:04.556Z,98197.66
2022-08-07T17:49:44.791Z,98208.13
2022-08-07T17:52:35.044Z,98205.28
2022-08-07T17:55:16.654Z,98207.72
2022-08-07T17:58:05.501Z,98207.28
2022-08-07T18:00:48.495Z,98208.91
2022-08-07T18:04:04.326Z,98223.72
2022-08-07T18:06:38.293Z,98228.81
2022-08-07T18:09:08.521Z,98225.87
2022-08-07T18:12:07.680Z,98233.44
2022-08-07T18:14:46.667Z,98229.91
2022-08-07T18:18:46.566Z,98240.06
2022-08-07T18:21:03.994Z,98242.50
2022-08-07T18:23:43.829Z,98240.94
2022-08-07T18:26:21.059Z,98246.59
2022-08-07T18:30:07.659Z,98243.00
2022-08-07T18:32:24.503Z,98249.34
2022-08-07T18:35:17.306Z,98244.97
2022-08-07T18:38:58.252Z,98252.94
2022-08-07T18:41:21.124Z,98250.25
2022-08-07T18:44:03.836Z,98257.94
2022-08-07T18:46:49.416Z,98254.72
2022-08-07T18:50:31.092Z,98259.50
2022-08-07T18:52:54.272Z,98254.94
2022-08-07T18:55:56.229Z,98253.72
2022-08-07T18:58:51.145Z,98256.53
2022-08-07T19:02:18.842Z,98266.28
2022-08-07T19:05:14.928Z,98261.28
2022-08-07T19:07:58.186Z,98269.31
2022-08-07T19:10:31.796Z,98264.81
2022-08-07T19:13:33.833Z,98271.13
2022-08-07T19:17:04.639Z,98285.69
2022-08-07T19:19:13.200Z,98274.00
2022-08-07T19:21:56.898Z,98277.41
2022-08-07T19:24:43.457Z,98281.72
2022-08-07T19:29:02.803Z,98294.25
2022-08-07T19:31:05.330Z,98295.88
2022-08-07T19:33:10.145Z,98295.72
2022-08-07T19:35:44.486Z,98293.41
2022-08-07T19:38:16.866Z,98297.62
2022-08-07T19:40:49.579Z,98293.28
2022-08-07T19:43:43.758Z,98299.16
2022-08-07T19:46:26.571Z,98296.22
2022-08-07T19:49:17.891Z,98297.62
2022-08-07T19:52:05.481Z,98292.50
2022-08-07T19:54:56.745Z,98292.31
2022-08-07T19:58:12.604Z,98292.31
2022-08-07T20:00:53.973Z,98294.78
2022-08-07T20:03:35.296Z,98296.44
2022-08-07T20:06:05.057Z,98300.25
2022-08-07T20:08:34.741Z,98304.41
2022-08-07T20:11:09.639Z,98301.41
2022-08-07T20:13:49.927Z,98298.56
2022-08-07T20:16:36.835Z,98302.91
2022-08-07T20:19:10.157Z,98300.38
2022-08-07T20:21:42.235Z,98312.06
2022-08-07T20:24:23.550Z,98306.78
2022-08-07T20:26:57.458Z,98304.50
2022-08-07T20:29:48.671Z,98310.06
2022-08-07T20:32:40.409Z,98313.72
2022-08-07T20:35:15.898Z,98309.00
2022-08-07T20:37:59.246Z,98303.22
2022-08-07T20:40:31.630Z,98302.44
2022-08-07T20:43:01.386Z,98304.22
2022-08-07T20:45:33.281Z,98310.69
2022-08-07T20:48:28.295Z,98304.56
2022-08-07T20:51:00.961Z,98299.59
2022-08-07T20:54:01.966Z,98303.25
2022-08-07T20:56:16.125Z,98301.09
2022-08-07T20:58:46.679Z,98306.38
2022-08-07T21:01:19.999Z,98303.56
2022-08-07T21:04:18.833Z,98304.88
2022-08-07T21:06:38.489Z,98304.22
2022-08-07T21:09:14.029Z,98304.59
2022-08-07T21:11:50.531Z,98307.00
2022-08-07T21:14:31.973Z,98297.88
2022-08-07T21:18:01.875Z,98302.66
2022-08-07T21:19:51.246Z,98299.50
2022-08-07T21:22:29.155Z,98304.81
2022-08-07T21:25:12.027Z,98306.97
2022-08-07T21:27:58.888Z,98306.69
2022-08-07T21:31:01.091Z,98305.47
2022-08-07T21:33:41.884Z,98316.81
2022-08-07T21:36:31.493Z,98317.56
2022-08-07T21:39:47.952Z,98317.75
2022-08-07T21:42:46.580Z,98335.62
2022-08-07T21:46:09.032Z,98335.50
2022-08-07T21:48:34.343Z,98338.72
2022-08-07T21:51:20.417Z,98334.19
2022-08-07T21:53:54.307Z,98339.84
2022-08-07T21:56:49.203Z,98335.22
2022-08-07T21:59:36.320Z,98342.66
2022-08-07T22:02:27.805Z,98346.63
2022-08-07T22:04:59.403Z,98344.28
2022-08-07T22:07:31.679Z,98346.78
2022-08-07T22:10:24.668Z,98341.63
2022-08-07T22:12:59.443Z,98348.91
2022-08-07T22:16:41.926Z,98347.81
2022-08-07T22:18:38.422Z,98353.59
2022-08-07T22:21:21.440Z,98356.91
2022-08-07T22:24:13.511Z,98346.28
2022-08-07T22:27:01.808Z,98345.13
2022-08-07T22:29:47.361Z,98347.28
2022-08-07T22:32:33.497Z,98356.06
2022-08-07T22:35:02.118Z,98361.34
2022-08-07T22:38:04.765Z,98352.97
2022-08-07T22:41:03.180Z,98351.97
2022-08-07T22:43:31.637Z,98343.62
2022-08-07T22:46:46.805Z,98349.88
2022-08-07T22:50:10.859Z,98339.78
2022-08-07T22:54:09.115Z,98347.34
2022-08-07T22:56:13.291Z,98354.63
2022-08-07T22:59:04.968Z,98345.81
2022-08-07T23:01:50.621Z,98346.47
2022-08-07T23:04:56.916Z,98354.03
2022-08-07T23:07:41.889Z,98361.87
2022-08-07T23:10:38.429Z,98356.78
2022-08-07T23:13:18.971Z,98352.59
2022-08-07T23:16:39.234Z,98358.09
2022-08-07T23:20:02.924Z,98351.56
2022-08-07T23:22:45.169Z,98350.53
2022-08-07T23:25:20.928Z,98358.88
2022-08-07T23:28:22.236Z,98355.22
2022-08-07T23:31:05.599Z,98358.47
2022-08-07T23:34:24.005Z,98355.28
2022-08-07T23:37:18.574Z,98356.34
2022-08-07T23:39:59.610Z,98360.72
2022-08-07T23:42:53.336Z,98350.56
2022-08-07T23:46:01.472Z,98343.09
2022-08-07T23:48:47.123Z,98361.19
2022-08-07T23:53:00.969Z,98370.28
2022-08-07T23:54:36.467Z,98376.94
2022-08-07T23:57:18.579Z,98365.19
